Terminal Aerodrome Forecast
Issued by NWS

Home | Current Version | Previous Version | Text Only | Print | Product List | Glossary On
Versions: 1 2 3 4 5 6 7 8 9 10 11 12 13
788
FTUS45 KPSR 212337
TAFIPL
TAF
KIPL 212337Z 2200/2224 25006KT P6SM VCSH BKN080
     FM220500 25006KT P6SM FEW060
     FM222000 27010G18KT P6SM FEW060=

USA.gov is the U.S. government's official web portal to all federal, state and local government web resources and services.